M I D A S
Marine Information and Data Acquisition System
Tripno 309 of the Zeeleeuw from 2002-08-23 06:30:27 to 2002-08-23 13:35:26
Back to CruiseResearch ActivitiesStationsMapUnderway DataData graphs

EquipmentUnitsComments
TimeDGPSUTC
LatitudeDGPSDM.mWGS84
LongitudeDGPSDM.mWGS84
SpeedMeteo Stationm/sRelative wind speed
DirectionMeteo StationdegRelative wind direction
TemperatureMeteo Stationdeg CelciusAir temperature
PressureMeteo StationPaAtmospheric pressure
HumidityMeteo Station%Relative humidity
Missing or incorrect values are displayed as -999
Metereological data collected by the RV Zeeleeuw from 2002-08-23 06:30:27 to 2002-08-23 13:35:26
Time Latitude Longitude Speed Direction Temperature Pressure Humidity
2002-08-23 06:31 51°13.674 2°55.896 1.1 152 15.5 101910 80
2002-08-23 06:32 51°13.68 2°55.823 0.6 130 15.5 101910 80
2002-08-23 06:33 51°13.674 2°55.764 1.7 107 15.5 101910 81
2002-08-23 06:34 51°13.668 2°55.744 1.3 131 15.5 101910 80
2002-08-23 06:35 51°13.697 2°55.742 1.1 190 15.5 101910 80
2002-08-23 06:36 51°13.777 2°55.671 1.8 213 15.5 101920 80
2002-08-23 06:37 51°13.891 2°55.587 2.1 229 15.5 101920 80
2002-08-23 06:38 51°14.011 2°55.503 2.9 215 15.6 101910 80
2002-08-23 06:39 51°14.134 2°55.409 1.6 196 15.7 101920 80
2002-08-23 06:40 51°14.245 2°55.291 1.7 224 15.7 101920 80
2002-08-23 06:41 51°14.335 2°55.115 1.8 248 15.8 101920 80
2002-08-23 06:42 51°14.417 2°54.909 2.2 282 15.9 101920 79
2002-08-23 06:43 51°14.462 2°54.661 3.7 276 16 101910 79
2002-08-23 06:44 51°14.439 2°54.407 4.3 281 16.1 101910 79
2002-08-23 06:45 51°14.373 2°54.113 6 265 16.1 101910 78
2002-08-23 06:46 51°14.285 2°53.76 7.5 260 16.1 101910 77
2002-08-23 06:47 51°14.185 2°53.408 7 260 16.2 101910 77
2002-08-23 06:48 51°14.076 2°53.041 7.9 258 16.3 101910 77
2002-08-23 06:49 51°13.97 2°52.671 7.8 261 16.4 101910 76
2002-08-23 06:50 51°13.861 2°52.293 7.7 265 16.3 101910 76
2002-08-23 06:51 51°13.755 2°51.93 7.4 258 16.4 101910 76
2002-08-23 06:52 51°13.643 2°51.567 7.2 253 16.4 101910 76
2002-08-23 06:53 51°13.524 2°51.198 8.5 256 16.4 101910 76
2002-08-23 06:54 51°13.405 2°50.834 8.2 256 16.3 101910 77
2002-08-23 06:55 51°13.279 2°50.481 8 258 16.3 101910 77
2002-08-23 06:56 51°13.159 2°50.141 8.4 256 16.2 101910 78
2002-08-23 06:57 51°13.036 2°49.796 7.7 252 16.2 101910 78
2002-08-23 06:58 51°12.914 2°49.45 9.6 253 16.1 101910 79
2002-08-23 06:59 51°12.791 2°49.104 8.1 256 16.1 101910 79
2002-08-23 07:00 51°12.666 2°48.749 8.4 254 16 101910 79
2002-08-23 07:01 51°12.543 2°48.406 9 256 16 101910 80
2002-08-23 07:02 51°12.417 2°48.052 8.7 254 15.9 101910 80
2002-08-23 07:03 51°12.294 2°47.706 8.6 253 15.9 101920 80
2002-08-23 07:04 51°12.172 2°47.367 8 250 16 101910 80
2002-08-23 07:05 51°12.054 2°47.016 8.3 255 16 101920 80
2002-08-23 07:06 51°11.934 2°46.63 8.5 250 15.9 101920 80
2002-08-23 07:07 51°11.83 2°46.252 7.9 250 16 101920 80
2002-08-23 07:08 51°11.734 2°45.852 8 253 16 101920 80
2002-08-23 07:09 51°11.643 2°45.473 8.5 249 15.9 101920 80
2002-08-23 07:10 51°11.548 2°45.077 8.7 242 16 101920 80
2002-08-23 07:11 51°11.454 2°44.689 9.7 244 16 101920 80
2002-08-23 07:12 51°11.372 2°44.295 8.2 244 16.1 101920 80
2002-08-23 07:13 51°11.291 2°43.899 8.3 247 16.1 101920 80
2002-08-23 07:14 51°11.209 2°43.503 8.5 247 16.1 101920 79
2002-08-23 07:15 51°11.126 2°43.099 9 245 16 101930 79
2002-08-23 07:16 51°11.049 2°42.707 8.1 248 16 101930 79
2002-08-23 07:17 51°11.055 2°42.296 6.9 249 16.1 101940 79
2002-08-23 07:18 51°11.11 2°42.004 1.9 233 16.1 101940 79
2002-08-23 07:19 51°11.197 2°42.001 1.5 153 16.2 101940 79
2002-08-23 07:20 51°11.215 2°42 1.7 165 16.2 101940 79
2002-08-23 07:21 51°11.22 2°42.001 1.8 171 16.3 101940 78
2002-08-23 07:22 51°11.213 2°42.007 2.3 170 16.3 101940 78
2002-08-23 07:23 51°11.201 2°42.018 1.7 187 16.4 101940 78
2002-08-23 07:24 51°11.196 2°42.037 1.8 186 16.4 101940 78
2002-08-23 07:25 51°11.193 2°42.055 1.9 160 16.3 101940 78
2002-08-23 07:26 51°11.195 2°42.078 2.4 174 16.4 101940 78
2002-08-23 07:27 51°11.187 2°42.095 2.5 184 16.5 101940 78
2002-08-23 07:28 51°11.174 2°42.099 2.1 193 16.5 101950 77
2002-08-23 07:29 51°11.157 2°42.096 2.1 203 16.4 101950 77
2002-08-23 07:30 51°11.139 2°42.084 2.5 207 16.4 101950 77
2002-08-23 07:31 51°11.12 2°42.068 2.1 205 16.4 101950 77
2002-08-23 07:32 51°11.104 2°42.049 2.2 204 16.4 101950 77
2002-08-23 07:33 51°11.09 2°42.031 1.5 174 16.5 101950 77
2002-08-23 07:34 51°11.079 2°42.011 2 171 16.4 101950 76
2002-08-23 07:35 51°11.07 2°41.991 2.3 147 16.4 101950 77
2002-08-23 07:36 51°11.062 2°41.966 1.5 136 16.5 101950 77
2002-08-23 07:37 51°11.055 2°41.942 1.5 125 16.7 101950 77
2002-08-23 07:38 51°11.05 2°41.917 1.7 122 16.7 101950 77
2002-08-23 07:39 51°11.044 2°41.893 1.7 125 16.8 101950 77
2002-08-23 07:40 51°11.051 2°41.884 1.6 171 16.8 101950 76
2002-08-23 07:41 51°11.165 2°41.737 5.9 253 16.8 101950 75
2002-08-23 07:42 51°11.162 2°41.366 8.7 246 16.8 101940 76
2002-08-23 07:43 51°11.053 2°40.994 8.9 247 16.8 101940 75
2002-08-23 07:44 51°10.943 2°40.617 9.3 242 16.8 101940 75
2002-08-23 07:46 51°10.81 2°40.163 9.5 243 16.7 101940 74
2002-08-23 07:47 51°10.664 2°39.654 9.2 244 16.9 101940 75
2002-08-23 07:48 51°10.527 2°39.136 9 247 16.8 101950 75
2002-08-23 07:50 51°10.446 2°38.588 8.8 244 16.8 101940 75
2002-08-23 07:51 51°10.375 2°38.121 9.5 241 16.9 101940 76
2002-08-23 07:52 51°10.31 2°37.703 10.4 245 16.8 101940 76
2002-08-23 07:53 51°10.244 2°37.285 9.1 244 16.7 101950 75
2002-08-23 07:54 51°10.179 2°36.884 9.2 246 16.7 101940 75
2002-08-23 07:55 51°10.114 2°36.478 9.7 239 16.8 101940 76
2002-08-23 07:56 51°10.051 2°36.082 8.6 246 16.8 101940 75
2002-08-23 07:57 51°10.132 2°35.75 5.2 242 16.8 101950 75
2002-08-23 07:58 51°10.332 2°35.791 5.7 229 16.8 101950 76
2002-08-23 07:59 51°10.518 2°35.955 6.2 225 16.8 101950 75
2002-08-23 08:00 51°10.697 2°36.125 5.6 235 16.8 101950 75
2002-08-23 08:01 51°10.881 2°36.302 5.9 218 16.8 101950 75
2002-08-23 08:02 51°11.059 2°36.474 5.4 219 16.8 101940 75
2002-08-23 08:03 51°11.239 2°36.651 5.8 225 16.8 101940 75
2002-08-23 08:04 51°11.419 2°36.826 5.9 232 16.9 101940 75
2002-08-23 08:05 51°11.6 2°37 6 218 16.9 101940 74
2002-08-23 08:06 51°11.78 2°37.176 5.3 229 17 101940 74
2002-08-23 08:07 51°11.961 2°37.355 6 227 17 101940 74
2002-08-23 08:08 51°12.145 2°37.534 5.7 227 17 101950 75
2002-08-23 08:09 51°12.326 2°37.706 6 226 17 101940 73
2002-08-23 08:10 51°12.504 2°37.876 5.7 229 17 101950 74
2002-08-23 08:11 51°12.687 2°38.052 5.7 235 17 101940 74
2002-08-23 08:12 51°12.868 2°38.223 5.7 227 17.1 101940 74
2002-08-23 08:13 51°13.05 2°38.384 5.8 230 17.2 101950 74
2002-08-23 08:14 51°13.244 2°38.536 5.5 239 17.2 101950 74
2002-08-23 08:15 51°13.433 2°38.676 7.1 228 17.2 101950 74
2002-08-23 08:16 51°13.631 2°38.782 5.5 230 17.2 101950 73
2002-08-23 08:17 51°13.849 2°38.83 5.3 244 17.2 101950 72
2002-08-23 08:18 51°14.067 2°38.745 5.8 229 17.3 101950 73
2002-08-23 08:19 51°14.269 2°38.574 6.4 238 17.2 101950 72
2002-08-23 08:20 51°14.473 2°38.408 6.7 244 17.3 101950 72
2002-08-23 08:21 51°14.674 2°38.241 5.6 239 17.4 101950 72
2002-08-23 08:22 51°14.882 2°38.073 5.8 244 17.4 101950 71
2002-08-23 08:23 51°15.081 2°37.909 5.9 239 17.4 101950 71
2002-08-23 08:24 51°15.276 2°37.748 5.1 232 17.5 101950 72
2002-08-23 08:25 51°15.488 2°37.578 6.6 244 17.5 101950 72
2002-08-23 08:26 51°15.694 2°37.416 5.6 232 17.5 101950 72
2002-08-23 08:27 51°15.913 2°37.253 5.4 240 17.5 101950 71
2002-08-23 08:28 51°16.117 2°37.101 6.4 251 17.6 101950 72
2002-08-23 08:29 51°16.338 2°36.921 5.4 238 17.6 101940 72
2002-08-23 08:30 51°16.491 2°36.824 2.2 216 17.6 101950 72
2002-08-23 08:31 51°16.528 2°36.889 1.6 176 17.6 101950 71
2002-08-23 08:32 51°16.554 2°36.916 0.9 66 17.7 101950 72
2002-08-23 08:33 51°16.578 2°36.876 1.8 29 17.8 101950 72
2002-08-23 08:34 51°16.583 2°36.822 2.1 11 17.8 101960 71
2002-08-23 08:35 51°16.584 2°36.767 1.8 13 17.8 101950 71
2002-08-23 08:36 51°16.582 2°36.714 1.5 10 17.8 101960 71
2002-08-23 08:37 51°16.579 2°36.665 2.5 28 17.9 101960 71
2002-08-23 08:38 51°16.575 2°36.619 1.2 317 17.8 101950 70
2002-08-23 08:39 51°16.569 2°36.575 2.1 62 17.8 101950 71
2002-08-23 08:40 51°16.561 2°36.536 2.2 59 17.9 101960 72
2002-08-23 08:41 51°16.552 2°36.5 1.8 102 17.9 101950 71
2002-08-23 08:42 51°16.541 2°36.465 1.9 96 18 101960 71
2002-08-23 08:43 51°16.528 2°36.43 2.3 155 18 101950 71
2002-08-23 08:44 51°16.503 2°36.47 2.7 189 17.9 101960 71
2002-08-23 08:45 51°16.582 2°36.523 4 241 17.9 101960 72
2002-08-23 08:46 51°16.749 2°36.306 7.4 248 17.9 101950 72
2002-08-23 08:47 51°16.907 2°36.026 6.2 248 17.8 101950 72
2002-08-23 08:48 51°17.07 2°35.736 6.2 243 17.8 101950 71
2002-08-23 08:49 51°17.233 2°35.464 7.2 253 17.8 101960 72
2002-08-23 08:50 51°17.397 2°35.196 6 240 17.8 101950 71
2002-08-23 08:51 51°17.567 2°34.922 6.7 240 17.8 101960 72
2002-08-23 08:52 51°17.738 2°34.651 6.5 237 17.8 101950 72
2002-08-23 08:53 51°17.9 2°34.376 7.1 241 17.8 101950 72
2002-08-23 08:54 51°18.06 2°34.088 6.1 251 17.8 101950 72
2002-08-23 08:55 51°18.224 2°33.792 7.2 245 17.8 101940 73
2002-08-23 08:56 51°18.378 2°33.505 6.6 247 17.8 101950 72
2002-08-23 08:57 51°18.528 2°33.204 7 246 17.8 101940 73
2002-08-23 08:58 51°18.673 2°32.915 7 249 17.8 101940 72
2002-08-23 08:59 51°18.822 2°32.608 7.4 244 17.8 101950 72
2002-08-23 09:00 51°18.967 2°32.301 7.7 246 17.8 101940 73
2002-08-23 09:01 51°19.114 2°31.988 7.4 247 17.9 101940 72
2002-08-23 09:02 51°19.254 2°31.682 6.9 254 17.9 101940 72
2002-08-23 09:03 51°19.398 2°31.368 8 258 17.9 101940 72
2002-08-23 09:04 51°19.539 2°31.054 7.8 249 17.9 101940 72
2002-08-23 09:05 51°19.656 2°30.786 4.4 259 17.9 101940 73
2002-08-23 09:06 51°19.729 2°30.606 4.2 263 18 101940 73
2002-08-23 09:07 51°19.79 2°30.449 3 272 18.1 101940 73
2002-08-23 09:08 51°19.848 2°30.309 3 267 18.2 101950 73
2002-08-23 09:09 51°19.908 2°30.178 3.2 289 18.2 101950 73
2002-08-23 09:10 51°19.966 2°30.039 4.8 262 18.3 101940 73
2002-08-23 09:11 51°20.023 2°29.912 2.8 285 18.3 101950 73
2002-08-23 09:12 51°20.046 2°29.843 2 350 18.4 101940 73
2002-08-23 09:13 51°20.019 2°29.832 1.8 359 18.3 101950 73
2002-08-23 09:14 51°19.995 2°29.816 1.5 352 18.2 101950 73
2002-08-23 09:15 51°19.974 2°29.793 2.2 349 18.2 101950 73
2002-08-23 09:16 51°19.953 2°29.771 1.8 1 18.1 101950 73
2002-08-23 09:17 51°19.935 2°29.748 1.6 10 18.2 101950 74
2002-08-23 09:18 51°19.917 2°29.722 1.4 5 18.2 101950 73
2002-08-23 09:19 51°19.9 2°29.695 2   18.2 101950 73
2002-08-23 09:20 51°19.884 2°29.666 1.8 5 18.2 101950 73
2002-08-23 09:21 51°19.87 2°29.637 1.8 17 18.2 101950 74
2002-08-23 09:22 51°19.856 2°29.607 1.8 31 18.2 101950 74
2002-08-23 09:23 51°19.843 2°29.578 1.5 16 18.1 101950 73
2002-08-23 09:24 51°19.86 2°29.562 1.6 281 18.1 101950 74
2002-08-23 09:25 51°19.905 2°29.472 4.3 251 18.2 101950 74
2002-08-23 09:26 51°19.875 2°29.321 4.9 222 18.2 101950 73
2002-08-23 09:27 51°19.777 2°29.288 3.3 195 18.1 101940 73
2002-08-23 09:28 51°19.726 2°29.405 2.2 209 18 101940 74
2002-08-23 09:29 51°19.719 2°29.562 2.7 210 18 101940 75
2002-08-23 09:30 51°19.728 2°29.722 2.4 215 18 101930 74
2002-08-23 09:31 51°19.722 2°29.881 3.6 216 18 101940 75
2002-08-23 09:32 51°19.728 2°30.044 2.3 223 18 101940 74
2002-08-23 09:33 51°19.748 2°30.192 2 228 17.9 101940 74
2002-08-23 09:34 51°19.756 2°30.342 2.1 214 18 101940 74
2002-08-23 09:35 51°19.739 2°30.492 3.1 199 18 101930 74
2002-08-23 09:36 51°19.721 2°30.65 2.9 222 18 101940 74
2002-08-23 09:37 51°19.695 2°30.812 2.6 208 18 101940 73
2002-08-23 09:38 51°19.7 2°30.969 2.6 200 18 101940 74
2002-08-23 09:39 51°19.712 2°31.095 0.9 200 18 101940 73
2002-08-23 09:40 51°19.747 2°31.119 0.4 305 18.2 101940 75
2002-08-23 09:41 51°19.778 2°31.115 0.1 336 18.3 101950 74
2002-08-23 09:42 51°19.803 2°31.102 0.3 334 18.4 101940 74
2002-08-23 09:43 51°19.824 2°31.084 0.3 347 18.6 101940 74
2002-08-23 09:44 51°19.836 2°31.064 1 3 18.5 101940 72
2002-08-23 09:45 51°19.843 2°31.045 0.8 16 18.5 101950 72
2002-08-23 09:46 51°19.844 2°31.028 1 79 18.6 101940 72
2002-08-23 09:47 51°19.843 2°31.009 1.5 64 18.7 101940 72
2002-08-23 09:48 51°19.839 2°30.991 1.3 72 18.7 101950 71
2002-08-23 09:49 51°19.833 2°30.972 1.1 85 18.6 101950 71
2002-08-23 09:50 51°19.826 2°30.954 2 96 18.6 101950 71
2002-08-23 09:51 51°19.821 2°30.953 1.1 126 18.6 101940 71
2002-08-23 09:52 51°19.82 2°30.979 0.8 168 18.7 101950 72
2002-08-23 09:53 51°19.817 2°31.029 1.1 183 18.7 101950 71
2002-08-23 09:54 51°19.805 2°31.089 1.6 184 18.7 101940 71
2002-08-23 09:55 51°19.78 2°31.154 2.4 192 18.6 101950 71
2002-08-23 09:56 51°19.739 2°31.196 1.6 188 18.5 101940 71
2002-08-23 09:57 51°19.697 2°31.214 1.8 180 18.4 101940 72
2002-08-23 09:58 51°19.654 2°31.222 2.3 207 18.4 101940 73
2002-08-23 09:59 51°19.61 2°31.211 2.4 217 18.3 101940 72
2002-08-23 10:00 51°19.564 2°31.18 2.4 203 18.3 101940 72
2002-08-23 10:01 51°19.524 2°31.14 2.1 213 18.2 101950 72
2002-08-23 10:02 51°19.489 2°31.092 2.6 246 18.2 101940 73
2002-08-23 10:03 51°19.461 2°31.041 2.5 270 18.5 101940 73
2002-08-23 10:04 51°19.437 2°30.993 2.4 297 18.6 101940 72
2002-08-23 10:05 51°19.417 2°30.943 1.9 303 18.6 101940 71
2002-08-23 10:06 51°19.398 2°30.881 1.3 302 18.6 101940 71
2002-08-23 10:07 51°19.384 2°30.816 1.5 337 18.6 101950 71
2002-08-23 10:08 51°19.372 2°30.758 0.5 316 18.7 101940 71
2002-08-23 10:09 51°19.362 2°30.708 0.3 333 18.8 101940 71
2002-08-23 10:10 51°19.355 2°30.663 0.1 333 18.9 101940 71
2002-08-23 10:11 51°19.349 2°30.621 0.7 356 18.8 101940 69
2002-08-23 10:12 51°19.349 2°30.59 0.2 35 18.7 101940 70
2002-08-23 10:13 51°19.351 2°30.572 0.7 135 18.9 101940 70
2002-08-23 10:14 51°19.35 2°30.568 0.2 179 19.1 101940 71
2002-08-23 10:15 51°19.341 2°30.577 0.5 165 19.3 101940 70
2002-08-23 10:16 51°19.326 2°30.602 1.1 175 19.3 101930 68
2002-08-23 10:17 51°19.318 2°30.634 1.4 190 19.2 101940 69
2002-08-23 10:18 51°19.318 2°30.667 1.1 180 19.1 101930 68
2002-08-23 10:19 51°19.317 2°30.708 1 177 19 101930 69
2002-08-23 10:20 51°19.316 2°30.75 1.6 175 18.9 101930 69
2002-08-23 10:21 51°19.327 2°30.782 0.7 160 18.8 101930 70
2002-08-23 10:22 51°19.344 2°30.804 0.4 183 18.7 101940 70
2002-08-23 10:23 51°19.366 2°30.821 0.7 178 18.7 101940 70
2002-08-23 10:24 51°19.388 2°30.838 0.5 183 18.8 101930 70
2002-08-23 10:25 51°19.402 2°30.867 0.9 182 18.7 101930 70
2002-08-23 10:26 51°19.404 2°30.909 0.8 194 18.7 101940 70
2002-08-23 10:27 51°19.39 2°30.953 1 188 18.6 101940 70
2002-08-23 10:28 51°19.362 2°30.998 1.9 188 18.5 101930 70
2002-08-23 10:29 51°19.323 2°31.032 1.4 203 18.4 101930 71
2002-08-23 10:30 51°19.291 2°31.07 0.8 192 18.4 101930 71
2002-08-23 10:31 51°19.277 2°31.112 1.5 163 18.4 101930 72
2002-08-23 10:32 51°19.281 2°31.143 0.6 131 18.5 101930 72
2002-08-23 10:33 51°19.293 2°31.162 0.3 106 18.6 101930 72
2002-08-23 10:34 51°19.31 2°31.177 0.4 115 18.7 101930 72
2002-08-23 10:35 51°19.326 2°31.194 0.5 106 18.8 101930 71
2002-08-23 10:36 51°19.342 2°31.214 0.8 155 18.9 101930 71
2002-08-23 10:37 51°19.358 2°31.236 0.5 151 18.9 101930 70
2002-08-23 10:38 51°19.374 2°31.256 0.3 173 19 101930 70
2002-08-23 10:39 51°19.392 2°31.273 0.3 169 18.9 101930 69
2002-08-23 10:40 51°19.413 2°31.29 0.3 181 19 101930 70
2002-08-23 10:41 51°19.433 2°31.305   190 19.2 101920 71
2002-08-23 10:42 51°19.456 2°31.317   87 19.3 101930 70
2002-08-23 10:43 51°19.48 2°31.325 0.4 299 19.5 101930 70
2002-08-23 10:44 51°19.504 2°31.332 1 265 19.7 101930 70
2002-08-23 10:45 51°19.53 2°31.335 1.2 277 19.9 101920 69
2002-08-23 10:46 51°19.556 2°31.337 0.8 288 20 101920 68
2002-08-23 10:47 51°19.584 2°31.339 1 284 20.1 101920 67
2002-08-23 10:48 51°19.611 2°31.338 0.9 281 20.2 101920 67
2002-08-23 10:49 51°19.64 2°31.337 0.8 276 20.3 101920 66
2002-08-23 10:50 51°19.668 2°31.335 0.8 272 20.3 101920 66
2002-08-23 10:51 51°19.696 2°31.335 0.5 265 20.3 101910 65
2002-08-23 10:52 51°19.722 2°31.35 0.5 239 20.3 101910 65
2002-08-23 10:53 51°19.746 2°31.38 0.6 237 20.3 101910 66
2002-08-23 10:54 51°19.768 2°31.413 0.5 237 20.3 101900 65
2002-08-23 10:55 51°19.789 2°31.446 0.9 248 20.2 101910 65
2002-08-23 10:56 51°19.808 2°31.477 0.7 257 20.1 101900 66
2002-08-23 10:57 51°19.823 2°31.506 0.8 279 20.1 101900 66
2002-08-23 10:58 51°19.837 2°31.535 0.4 282 20.1 101900 66
2002-08-23 10:59 51°19.852 2°31.569 0.4 272 20.2 101900 66
2002-08-23 11:00 51°19.864 2°31.608 0.3 241 20.2 101900 66
2002-08-23 11:01 51°19.878 2°31.656 0.6 254 20.2 101900 66
2002-08-23 11:02 51°19.891 2°31.715 0.6 265 20.3 101900 66
2002-08-23 11:03 51°19.895 2°31.781 0.2 252 20.3 101900 66
2002-08-23 11:04 51°19.889 2°31.854 0.5 236 20.3 101890 66
2002-08-23 11:05 51°19.88 2°31.921 0.4 217 20.4 101890 66
2002-08-23 11:06 51°19.864 2°31.99 0.6 176 20.3 101890 65
2002-08-23 11:07 51°19.837 2°32.047 0.5 170 20.2 101900 65
2002-08-23 11:08 51°19.797 2°32.085 1.1 196 20.1 101890 65
2002-08-23 11:09 51°19.752 2°32.098 2.1 226 19.9 101890 66
2002-08-23 11:10 51°19.706 2°32.096 2.1 229 19.7 101900 67
2002-08-23 11:11 51°19.659 2°32.091 2 213 19.6 101890 67
2002-08-23 11:12 51°19.614 2°32.087 2.1 218 19.4 101890 67
2002-08-23 11:13 51°19.564 2°32.079 1.6 225 19.2 101890 68
2002-08-23 11:14 51°19.513 2°32.064 2 225 19 101890 69
2002-08-23 11:15 51°19.47 2°32.042 1.9 249 18.9 101890 69
2002-08-23 11:16 51°19.431 2°32.013 1.6 239 19 101890 70
2002-08-23 11:17 51°19.395 2°31.981 1.8 248 19.1 101890 70
2002-08-23 11:18 51°19.359 2°31.946 1.4 250 19.3 101890 70
2002-08-23 11:19 51°19.324 2°31.911 1.9 243 19.5 101890 69
2002-08-23 11:20 51°19.29 2°31.875 1.9 230 19.6 101890 68
2002-08-23 11:21 51°19.257 2°31.837 1.6 233 19.6 101880 68
2002-08-23 11:22 51°19.225 2°31.799 1 228 19.5 101890 67
2002-08-23 11:23 51°19.194 2°31.76 2.4 234 19.5 101890 68
2002-08-23 11:24 51°19.165 2°31.722 2 230 19.5 101890 68
2002-08-23 11:25 51°19.134 2°31.683 1.9 234 19.4 101880 67
2002-08-23 11:26 51°19.106 2°31.645 1.6 225 19.4 101890 68
2002-08-23 11:27 51°19.078 2°31.607 1.8 243 19.4 101880 68
2002-08-23 11:28 51°19.05 2°31.567 1.8 244 19.4 101890 68
2002-08-23 11:29 51°19.024 2°31.529 1.3 224 19.4 101880 68
2002-08-23 11:30 51°18.998 2°31.49 1.3 226 19.4 101880 68
2002-08-23 11:31 51°18.974 2°31.449 1.5 222 19.5 101890 68
2002-08-23 11:32 51°18.956 2°31.406 1.6 239 19.6 101880 68
2002-08-23 11:33 51°18.948 2°31.367 1.5 219 19.7 101880 67
2002-08-23 11:34 51°18.95 2°31.336 1.2 219 19.5 101890 67
2002-08-23 11:35 51°18.957 2°31.308 1.1 225 19.3 101890 67
2002-08-23 11:36 51°18.965 2°31.286 1.2 215 19.2 101890 68
2002-08-23 11:37 51°18.974 2°31.269 0.8 221 19.2 101890 68
2002-08-23 11:38 51°18.985 2°31.255 0.8 217 19.3 101890 69
2002-08-23 11:39 51°19.005 2°31.219 2 236 19.3 101890 68
2002-08-23 11:40 51°19.045 2°31.163 2 234 19.2 101890 68
2002-08-23 11:41 51°19.095 2°31.133 1.7 233 19.1 101890 69
2002-08-23 11:42 51°19.148 2°31.132 1 234 19.3 101890 70
2002-08-23 11:43 51°19.197 2°31.149 2 233 19.3 101890 69
2002-08-23 11:44 51°19.248 2°31.178 1.8 226 19.4 101890 69
2002-08-23 11:45 51°19.298 2°31.217 2 253 19.5 101890 68
2002-08-23 11:46 51°19.348 2°31.268 2 243 19.5 101880 68
2002-08-23 11:47 51°19.393 2°31.325 2 251 19.5 101890 67
2002-08-23 11:48 51°19.439 2°31.388 1.2 251 19.5 101890 68
2002-08-23 11:49 51°19.48 2°31.456 1.6 262 19.6 101880 68
2002-08-23 11:50 51°19.515 2°31.532 1.5 247 19.7 101890 68
2002-08-23 11:51 51°19.55 2°31.611 1.6 238 19.8 101890 68
2002-08-23 11:52 51°19.58 2°31.682 1.3 259 19.8 101890 68
2002-08-23 11:53 51°19.603 2°31.745 1.1 236 19.8 101890 67
2002-08-23 11:54 51°19.626 2°31.801 0.9 255 19.8 101890 67
2002-08-23 11:55 51°19.647 2°31.852 0.5 221 19.9 101890 67
2002-08-23 11:56 51°19.668 2°31.899 1.3 238 20 101890 67
2002-08-23 11:57 51°19.687 2°31.94 0.6 251 20 101890 66
2002-08-23 11:58 51°19.706 2°31.983 0.9 256 20 101890 66
2002-08-23 11:59 51°19.724 2°32.019 0.6 283 20.1 101890 67
2002-08-23 12:00 51°19.742 2°32.057 0.7 305 20.2 101890 67
2002-08-23 12:01 51°19.759 2°32.093 1.1 250 20.3 101890 66
2002-08-23 12:02 51°19.776 2°32.128 1 275 20.3 101890 65
2002-08-23 12:03 51°19.792 2°32.163 1.4 291 20.2 101890 66
2002-08-23 12:04 51°19.808 2°32.198 1.3 298 20.4 101880 65
2002-08-23 12:05 51°19.823 2°32.235 0.4 317 20.3 101880 65
2002-08-23 12:06 51°19.838 2°32.271 1 319 20.2 101880 65
2002-08-23 12:07 51°19.853 2°32.309 0.7 313 20.2 101880 65
2002-08-23 12:08 51°19.868 2°32.346 1.1 260 20.1 101880 65
2002-08-23 12:09 51°19.883 2°32.383 1.4 279 20.2 101880 65
2002-08-23 12:10 51°19.898 2°32.422 1.5 277 20.1 101880 65
2002-08-23 12:11 51°19.912 2°32.459 1.5 270 20.1 101880 65
2002-08-23 12:12 51°19.926 2°32.496 1.3 258 20.1 101880 65
2002-08-23 12:13 51°19.939 2°32.531 1.4 266 20 101880 65
2002-08-23 12:14 51°19.955 2°32.566 1.2 265 20 101880 65
2002-08-23 12:15 51°19.968 2°32.603 1.4 275 20 101880 66
2002-08-23 12:16 51°19.982 2°32.642 1.9 299 20 101890 66
2002-08-23 12:17 51°19.995 2°32.678 1.6 315 20 101880 66
2002-08-23 12:18 51°20.009 2°32.718 2.6 303 19.9 101880 66
2002-08-23 12:19 51°20.022 2°32.758 1.8 294 19.8 101880 65
2002-08-23 12:20 51°20.036 2°32.796 1.2 307 19.7 101880 66
2002-08-23 12:21 51°20.05 2°32.839 1.8 310 19.6 101880 66
2002-08-23 12:22 51°20.064 2°32.88 1.4 309 19.5 101890 66
2002-08-23 12:23 51°20.079 2°32.921 1.9 292 19.4 101890 67
2002-08-23 12:24 51°20.094 2°32.96 1.9 296 19.4 101890 67
2002-08-23 12:25 51°20.109 2°32.999 1.7 306 19.4 101890 67
2002-08-23 12:26 51°20.123 2°33.041 1.5 302 19.3 101890 68
2002-08-23 12:27 51°20.137 2°33.083 1.2 312 19.3 101880 69
2002-08-23 12:28 51°20.152 2°33.146 3.2 251 19.3 101890 69
2002-08-23 12:29 51°20.142 2°33.422 6.4 241 19.2 101880 68
2002-08-23 12:30 51°20.06 2°33.78 7.5 241 19 101880 69
2002-08-23 12:31 51°19.974 2°34.143 7.1 245 18.9 101880 69
2002-08-23 12:32 51°19.874 2°34.496 7.4 252 18.9 101880 70
2002-08-23 12:33 51°19.774 2°34.846 7.7 243 18.9 101870 70
2002-08-23 12:34 51°19.669 2°35.217 7.6 252 19 101880 70
2002-08-23 12:35 51°19.565 2°35.58 7.3 244 18.8 101870 70
2002-08-23 12:36 51°19.464 2°35.946 7.6 242 18.9 101870 71
2002-08-23 12:37 51°19.363 2°36.311 6.9 243 18.9 101870 70
2002-08-23 12:38 51°19.263 2°36.678 7.1 243 18.9 101870 70
2002-08-23 12:39 51°19.161 2°37.048 7.9 252 18.8 101870 71
2002-08-23 12:40 51°19.054 2°37.407 8.6 246 18.8 101880 69
2002-08-23 12:41 51°18.939 2°37.758 7 246 18.9 101870 69
2002-08-23 12:42 51°18.828 2°38.113 7.9 253 18.9 101870 69
2002-08-23 12:43 51°18.72 2°38.466 7.7 250 18.9 101870 70
2002-08-23 12:44 51°18.62 2°38.821 7 251 19 101870 70
2002-08-23 12:45 51°18.514 2°39.167 7.3 256 19 101870 69
2002-08-23 12:46 51°18.409 2°39.514 6.2 254 19 101870 70
2002-08-23 12:47 51°18.304 2°39.865 6.8 250 19 101870 70
2002-08-23 12:48 51°18.195 2°40.219 7.5 254 19 101860 70
2002-08-23 12:49 51°18.083 2°40.58 7.9 251 19 101870 70
2002-08-23 12:50 51°17.967 2°40.938 8.2 253 19 101860 69
2002-08-23 12:51 51°17.852 2°41.295 7.6 251 18.9 101870 69
2002-08-23 12:52 51°17.74 2°41.652 8.4 262 19 101860 69
2002-08-23 12:53 51°17.638 2°42.004 7.8 265 19 101860 69
2002-08-23 12:54 51°17.529 2°42.345 7.3 259 19 101860 68
2002-08-23 12:55 51°17.419 2°42.683 6.2 254 19 101860 68
2002-08-23 12:56 51°17.301 2°43.033 9.5 258 19 101870 69
2002-08-23 12:57 51°17.18 2°43.378 8 249 19 101860 68
2002-08-23 12:58 51°17.06 2°43.724 6.2 256 19 101860 68
2002-08-23 12:59 51°16.939 2°44.069 6.7 252 19 101870 68
2002-08-23 13:00 51°16.821 2°44.413 9 262 19 101860 68
2002-08-23 13:01 51°16.705 2°44.754 6.7 268 19 101870 68
2002-08-23 13:02 51°16.586 2°45.089 8.1 258 19 101860 68
2002-08-23 13:03 51°16.469 2°45.422 7 263 19 101860 66
2002-08-23 13:04 51°16.358 2°45.76 8.4 254 19 101860 67
2002-08-23 13:05 51°16.297 2°46.136 8.6 265 19 101860 65
2002-08-23 13:06 51°16.236 2°46.521 7.8 257 19.1 101860 66
2002-08-23 13:07 51°16.168 2°46.908 8.6 252 19.1 101860 64
2002-08-23 13:08 51°16.098 2°47.296 9.4 264 19.1 101860 64
2002-08-23 13:09 51°16.027 2°47.686 10.3 258 19.1 101850 63
2002-08-23 13:10 51°15.955 2°48.077 9.3 258 19.1 101860 62
2002-08-23 13:11 51°15.879 2°48.463 9.5 265 19.1 101870 62
2002-08-23 13:12 51°15.804 2°48.849 10.2 255 19.1 101860 62
2002-08-23 13:13 51°15.729 2°49.227 8.7 256 19.2 101860 62
2002-08-23 13:14 51°15.653 2°49.602 11 260 19.2 101870 62
2002-08-23 13:15 51°15.581 2°49.985 9.9 258 19.2 101860 63
2002-08-23 13:16 51°15.511 2°50.37 10.6 257 19.2 101860 63
2002-08-23 13:17 51°15.45 2°50.758 9.7 256 19.2 101860 62
2002-08-23 13:18 51°15.393 2°51.148 9 257 19.1 101860 62
2002-08-23 13:19 51°15.333 2°51.536 10.1 265 19.2 101860 63
2002-08-23 13:20 51°15.27 2°51.901 8.6 269 19.2 101860 64
2002-08-23 13:21 51°15.207 2°52.169 6.8 282 19.1 101860 63
2002-08-23 13:22 51°15.145 2°52.421 6.3 273 19.2 101870 63
2002-08-23 13:23 51°15.054 2°52.763 8.5 266 19.2 101860 62
2002-08-23 13:24 51°14.961 2°53.107 9 269 19.2 101850 62
2002-08-23 13:25 51°14.868 2°53.423 8.5 271 19.2 101860 62
2002-08-23 13:26 51°14.771 2°53.736 7.8 277 19.2 101860 64
2002-08-23 13:27 51°14.673 2°54.051 8.4 273 19.2 101860 64
2002-08-23 13:28 51°14.572 2°54.366 9.3 276 19.2 101860 64
2002-08-23 13:29 51°14.472 2°54.68 8.4 273 19.2 101860 63
2002-08-23 13:30 51°14.369 2°54.993 8.2 268 19.2 101860 63
2002-08-23 13:31 51°14.264 2°55.248 5.7 273 19.2 101870 64
2002-08-23 13:32 51°14.181 2°55.364 3.2 309 19.3 101870 64
2002-08-23 13:33 51°14.099 2°55.426 0.8 348 19.2 101880 63
2002-08-23 13:34 51°14.003 2°55.497 2 308 19.3 101880 64